UAL774 KIAH-KSAN
Flight info
| Callsign | UAL774 |
|---|---|
| Flight time | 3h 3m |
| Altitude | 34000 |
| Route | PITZZ5 CRGER EWM Q2 ITUCO GBN HOGGZ LUCKI1 |
| Aircraft | B38M/M-SDE1FGHILORVWXY/HB1 |
Departure
| Time | 2026-05-08 03:46 |
|---|---|
| Airport | George Bush Intercontinental Airport (KIAH) |
Arrival
| Time | 2026-05-08 06:49 |
|---|---|
| Airport | San Diego International Airport (KSAN) |
| Time | Latitude | Longitude | Altitude | Speed | Heading |
|---|---|---|---|---|---|
| 2026-05-08 03:07 | 29.98803 | -95.33710 | 109 ft | 0 kts | 180° |
| 2026-05-08 03:34 | 29.98826 | -95.33710 | 109 ft | 4 kts | 180° |
| 2026-05-08 03:34 | 29.98848 | -95.33710 | 109 ft | 3 kts | 180° |
| 2026-05-08 03:34 | 29.98875 | -95.33708 | 108 ft | 4 kts | 191° |
| 2026-05-08 03:34 | 29.98900 | -95.33698 | 109 ft | 4 kts | 210° |
| 2026-05-08 03:35 | 29.98918 | -95.33678 | 109 ft | 4 kts | 250° |
| 2026-05-08 03:35 | 29.98920 | -95.33651 | 109 ft | 4 kts | 270° |
| 2026-05-08 03:35 | 29.98920 | -95.33641 | 109 ft | 0 kts | 270° |
| 2026-05-08 03:39 | 29.98920 | -95.33648 | 109 ft | 2 kts | 268° |
| 2026-05-08 03:39 | 29.98922 | -95.33681 | 109 ft | 7 kts | 283° |
| 2026-05-08 03:39 | 29.98968 | -95.33717 | 109 ft | 10 kts | 353° |
| 2026-05-08 03:39 | 29.99030 | -95.33718 | 109 ft | 9 kts | 359° |
| 2026-05-08 03:40 | 29.99081 | -95.33727 | 108 ft | 3 kts | 326° |
| 2026-05-08 03:40 | 29.99089 | -95.33761 | 109 ft | 8 kts | 266° |
| 2026-05-08 03:40 | 29.99089 | -95.33873 | 109 ft | 19 kts | 269° |
| 2026-05-08 03:40 | 29.99088 | -95.34031 | 109 ft | 20 kts | 269° |
| 2026-05-08 03:41 | 29.99087 | -95.34194 | 109 ft | 21 kts | 270° |
| 2026-05-08 03:41 | 29.99085 | -95.34363 | 110 ft | 19 kts | 270° |
| 2026-05-08 03:41 | 29.99085 | -95.34501 | 109 ft | 17 kts | 270° |
| 2026-05-08 03:41 | 29.99085 | -95.34643 | 109 ft | 19 kts | 270° |
| 2026-05-08 03:42 | 29.99085 | -95.34799 | 109 ft | 20 kts | 270° |
| 2026-05-08 03:42 | 29.99089 | -95.34966 | 109 ft | 22 kts | 272° |
| 2026-05-08 03:42 | 29.99090 | -95.35145 | 109 ft | 23 kts | 269° |
| 2026-05-08 03:42 | 29.99090 | -95.35332 | 109 ft | 24 kts | 270° |
| 2026-05-08 03:43 | 29.99076 | -95.35467 | 109 ft | 10 kts | 229° |
| 2026-05-08 03:43 | 29.99004 | -95.35484 | 109 ft | 12 kts | 181° |
| 2026-05-08 03:43 | 29.98927 | -95.35491 | 109 ft | 10 kts | 199° |
| 2026-05-08 03:43 | 29.98884 | -95.35556 | 109 ft | 10 kts | 242° |
| 2026-05-08 03:44 | 29.98853 | -95.35623 | 109 ft | 10 kts | 242° |
| 2026-05-08 03:44 | 29.98821 | -95.35692 | 109 ft | 8 kts | 242° |
| 2026-05-08 03:44 | 29.98801 | -95.35736 | 111 ft | 6 kts | 242° |
| 2026-05-08 03:44 | 29.98763 | -95.35768 | 111 ft | 7 kts | 169° |
| 2026-05-08 03:45 | 29.98700 | -95.35731 | 110 ft | 30 kts | 153° |
| 2026-05-08 03:45 | 29.98272 | -95.35470 | 109 ft | 106 kts | 152° |
| 2026-05-08 03:45 | 29.97430 | -95.34951 | 108 ft | 165 kts | 151° |
| 2026-05-08 03:45 | 29.96330 | -95.34285 | 457 ft | 184 kts | 152° |
| 2026-05-08 03:46 | 29.95168 | -95.33635 | 1218 ft | 186 kts | 158° |
| 2026-05-08 03:46 | 29.93899 | -95.33508 | 2074 ft | 193 kts | 189° |
| 2026-05-08 03:46 | 29.92659 | -95.34310 | 2601 ft | 223 kts | 224° |
| 2026-05-08 03:46 | 29.91853 | -95.35977 | 3142 ft | 253 kts | 246° |
| 2026-05-08 03:47 | 29.91057 | -95.37842 | 3929 ft | 267 kts | 237° |
| 2026-05-08 03:47 | 29.90133 | -95.39728 | 4675 ft | 273 kts | 238° |
| 2026-05-08 03:47 | 29.89222 | -95.41628 | 4820 ft | 273 kts | 239° |
| 2026-05-08 03:47 | 29.88291 | -95.43539 | 5014 ft | 274 kts | 237° |
| 2026-05-08 03:48 | 29.87336 | -95.45421 | 5988 ft | 272 kts | 237° |
| 2026-05-08 03:48 | 29.86373 | -95.47331 | 6932 ft | 279 kts | 238° |
| 2026-05-08 03:48 | 29.85411 | -95.49258 | 7935 ft | 279 kts | 239° |
| 2026-05-08 03:48 | 29.84462 | -95.51203 | 8962 ft | 280 kts | 240° |
| 2026-05-08 03:49 | 29.83513 | -95.53157 | 9968 ft | 280 kts | 242° |
| 2026-05-08 03:49 | 29.82896 | -95.55318 | 10618 ft | 294 kts | 264° |
| 2026-05-08 03:49 | 29.83165 | -95.57673 | 11203 ft | 307 kts | 289° |
| 2026-05-08 03:49 | 29.84195 | -95.59867 | 11946 ft | 314 kts | 297° |
| 2026-05-08 03:50 | 29.85277 | -95.62050 | 12863 ft | 314 kts | 297° |
| 2026-05-08 03:50 | 29.86359 | -95.64245 | 13712 ft | 316 kts | 297° |
| 2026-05-08 03:50 | 29.87432 | -95.66420 | 14475 ft | 318 kts | 296° |
| 2026-05-08 03:50 | 29.88529 | -95.68642 | 15183 ft | 321 kts | 296° |
| 2026-05-08 03:51 | 29.89639 | -95.70890 | 15892 ft | 324 kts | 296° |
| 2026-05-08 03:51 | 29.90758 | -95.73157 | 16590 ft | 327 kts | 295° |
| 2026-05-08 03:51 | 29.91888 | -95.75447 | 17257 ft | 330 kts | 295° |
| 2026-05-08 03:51 | 29.93030 | -95.77762 | 17910 ft | 334 kts | 294° |
| 2026-05-08 03:52 | 29.94181 | -95.80099 | 18504 ft | 337 kts | 294° |
| 2026-05-08 03:52 | 29.95339 | -95.82449 | 19067 ft | 340 kts | 294° |
| 2026-05-08 03:52 | 29.96529 | -95.84865 | 19659 ft | 342 kts | 294° |
| 2026-05-08 03:52 | 29.97689 | -95.87225 | 20232 ft | 345 kts | 293° |
| 2026-05-08 03:53 | 29.98876 | -95.89638 | 20823 ft | 346 kts | 293° |
| 2026-05-08 03:53 | 30.00065 | -95.92059 | 21417 ft | 348 kts | 293° |
| 2026-05-08 03:53 | 30.01260 | -95.94492 | 21935 ft | 351 kts | 293° |
| 2026-05-08 03:53 | 30.02462 | -95.96942 | 22464 ft | 353 kts | 293° |
| 2026-05-08 03:54 | 30.03674 | -95.99413 | 22964 ft | 356 kts | 293° |
| 2026-05-08 03:54 | 30.04898 | -96.01912 | 23471 ft | 359 kts | 292° |
| 2026-05-08 03:54 | 30.06134 | -96.04434 | 23891 ft | 362 kts | 292° |
| 2026-05-08 03:54 | 30.07077 | -96.07063 | 24304 ft | 353 kts | 277° |
| 2026-05-08 03:55 | 30.07534 | -96.09843 | 24669 ft | 355 kts | 277° |
| 2026-05-08 03:55 | 30.08007 | -96.12649 | 25073 ft | 357 kts | 276° |
| 2026-05-08 03:55 | 30.08465 | -96.15473 | 25491 ft | 359 kts | 276° |
| 2026-05-08 03:55 | 30.08918 | -96.18329 | 25897 ft | 361 kts | 276° |
| 2026-05-08 03:56 | 30.09364 | -96.21190 | 26303 ft | 363 kts | 276° |
| 2026-05-08 03:56 | 30.09809 | -96.24065 | 26705 ft | 366 kts | 276° |
| 2026-05-08 03:56 | 30.10258 | -96.26973 | 27102 ft | 368 kts | 276° |
| 2026-05-08 03:56 | 30.10705 | -96.29880 | 27491 ft | 370 kts | 276° |
| 2026-05-08 03:57 | 30.11156 | -96.32817 | 27875 ft | 372 kts | 276° |
| 2026-05-08 03:57 | 30.11607 | -96.35751 | 28250 ft | 374 kts | 276° |
| 2026-05-08 03:57 | 30.12062 | -96.38725 | 28621 ft | 376 kts | 276° |
| 2026-05-08 03:57 | 30.12517 | -96.41702 | 29006 ft | 378 kts | 276° |
| 2026-05-08 03:58 | 30.12976 | -96.44709 | 29360 ft | 381 kts | 276° |
| 2026-05-08 03:58 | 30.13436 | -96.47727 | 29726 ft | 383 kts | 275° |
| 2026-05-08 03:58 | 30.13897 | -96.50761 | 30093 ft | 384 kts | 275° |
| 2026-05-08 03:58 | 30.14360 | -96.53806 | 30396 ft | 386 kts | 275° |
| 2026-05-08 03:59 | 30.14822 | -96.56852 | 30713 ft | 387 kts | 275° |
| 2026-05-08 03:59 | 30.15286 | -96.59921 | 31084 ft | 387 kts | 275° |
| 2026-05-08 03:59 | 30.15749 | -96.62984 | 31480 ft | 387 kts | 275° |
| 2026-05-08 03:59 | 30.16209 | -96.66032 | 31910 ft | 385 kts | 275° |
| 2026-05-08 04:00 | 30.16664 | -96.69049 | 32332 ft | 384 kts | 274° |
| 2026-05-08 04:00 | 30.17121 | -96.72090 | 32769 ft | 382 kts | 274° |
| 2026-05-08 04:00 | 30.17575 | -96.75107 | 33201 ft | 381 kts | 274° |
| 2026-05-08 04:00 | 30.18026 | -96.78119 | 33622 ft | 379 kts | 274° |
| 2026-05-08 04:01 | 30.18475 | -96.81118 | 33989 ft | 378 kts | 274° |
| 2026-05-08 04:01 | 30.19366 | -96.87080 | 34066 ft | 374 kts | 274° |
| 2026-05-08 04:02 | 30.20239 | -96.92950 | 34072 ft | 374 kts | 274° |
| 2026-05-08 04:02 | 30.21119 | -96.98878 | 34072 ft | 374 kts | 274° |
| 2026-05-08 04:03 | 30.21997 | -97.04805 | 34072 ft | 373 kts | 273° |
| 2026-05-08 04:03 | 30.23318 | -97.13668 | 34047 ft | 373 kts | 274° |
| 2026-05-08 04:04 | 30.24198 | -97.19578 | 33977 ft | 373 kts | 274° |
| 2026-05-08 04:04 | 30.25068 | -97.25437 | 33982 ft | 373 kts | 273° |
| 2026-05-08 04:05 | 30.25942 | -97.31342 | 33998 ft | 373 kts | 273° |
| 2026-05-08 04:05 | 30.26813 | -97.37247 | 33997 ft | 373 kts | 273° |
| 2026-05-08 04:06 | 30.27683 | -97.43165 | 33998 ft | 373 kts | 273° |
| 2026-05-08 04:06 | 30.28549 | -97.49070 | 33998 ft | 373 kts | 273° |
| 2026-05-08 04:07 | 30.29412 | -97.54981 | 33997 ft | 372 kts | 273° |
| 2026-05-08 04:07 | 30.30272 | -97.60892 | 34020 ft | 373 kts | 273° |
| 2026-05-08 04:08 | 30.31129 | -97.66791 | 34021 ft | 374 kts | 273° |
| 2026-05-08 04:08 | 30.32029 | -97.72714 | 34015 ft | 377 kts | 277° |
| 2026-05-08 04:09 | 30.33318 | -97.78588 | 34023 ft | 377 kts | 277° |
| 2026-05-08 04:09 | 30.34567 | -97.84491 | 34079 ft | 377 kts | 276° |
| 2026-05-08 04:10 | 30.35805 | -97.90389 | 34091 ft | 377 kts | 276° |
| 2026-05-08 04:10 | 30.37038 | -97.96282 | 34098 ft | 377 kts | 276° |
| 2026-05-08 04:11 | 30.38272 | -98.02199 | 34104 ft | 378 kts | 276° |
| 2026-05-08 04:11 | 30.39503 | -98.08105 | 34093 ft | 378 kts | 276° |
| 2026-05-08 04:12 | 30.40734 | -98.14033 | 34076 ft | 378 kts | 276° |
| 2026-05-08 04:12 | 30.41962 | -98.19960 | 34058 ft | 379 kts | 276° |
| 2026-05-08 04:13 | 30.43157 | -98.25745 | 34066 ft | 378 kts | 276° |
| 2026-05-08 04:13 | 30.44371 | -98.31627 | 34072 ft | 378 kts | 276° |
| 2026-05-08 04:14 | 30.45665 | -98.37530 | 34077 ft | 379 kts | 277° |
| 2026-05-08 04:14 | 30.46980 | -98.43417 | 34073 ft | 379 kts | 277° |
| 2026-05-08 04:15 | 30.48293 | -98.49325 | 34030 ft | 379 kts | 277° |
| 2026-05-08 04:15 | 30.49608 | -98.55251 | 34037 ft | 379 kts | 277° |
| 2026-05-08 04:16 | 30.50909 | -98.61130 | 34048 ft | 379 kts | 277° |
| 2026-05-08 04:16 | 30.52163 | -98.66807 | 34058 ft | 379 kts | 277° |
| 2026-05-08 04:17 | 30.53452 | -98.72660 | 34054 ft | 379 kts | 276° |
| 2026-05-08 04:17 | 30.54753 | -98.78579 | 34050 ft | 379 kts | 276° |
| 2026-05-08 04:18 | 30.55834 | -98.83509 | 34044 ft | 379 kts | 276° |
| 2026-05-08 04:18 | 30.57131 | -98.89436 | 34044 ft | 379 kts | 276° |
| 2026-05-08 04:19 | 30.58424 | -98.95357 | 34028 ft | 379 kts | 276° |
| 2026-05-08 04:19 | 30.59715 | -99.01283 | 34020 ft | 379 kts | 276° |
| 2026-05-08 04:20 | 30.61004 | -99.07211 | 34023 ft | 379 kts | 276° |
| 2026-05-08 04:20 | 30.62289 | -99.13140 | 34018 ft | 378 kts | 276° |
| 2026-05-08 04:21 | 30.63565 | -99.19040 | 34040 ft | 378 kts | 276° |
| 2026-05-08 04:21 | 30.64842 | -99.24959 | 34009 ft | 378 kts | 276° |
| 2026-05-08 04:22 | 30.66119 | -99.30887 | 34012 ft | 378 kts | 276° |
| 2026-05-08 04:22 | 30.67326 | -99.36509 | 34014 ft | 378 kts | 276° |
| 2026-05-08 04:23 | 30.68597 | -99.42437 | 34024 ft | 378 kts | 276° |
| 2026-05-08 04:23 | 30.69859 | -99.48343 | 34044 ft | 378 kts | 276° |
| 2026-05-08 04:24 | 30.71119 | -99.54252 | 34029 ft | 376 kts | 276° |
| 2026-05-08 04:24 | 30.72377 | -99.60160 | 34034 ft | 376 kts | 276° |
| 2026-05-08 04:25 | 30.73631 | -99.66070 | 34045 ft | 376 kts | 276° |
| 2026-05-08 04:25 | 30.74880 | -99.71970 | 34040 ft | 376 kts | 276° |
| 2026-05-08 04:26 | 30.76126 | -99.77868 | 34046 ft | 376 kts | 276° |
| 2026-05-08 04:26 | 30.77372 | -99.83780 | 34058 ft | 376 kts | 276° |
| 2026-05-08 04:27 | 30.78608 | -99.89659 | 34030 ft | 374 kts | 276° |
| 2026-05-08 04:27 | 30.79832 | -99.95496 | 34021 ft | 374 kts | 276° |
| 2026-05-08 04:28 | 30.81064 | -100.01385 | 34022 ft | 374 kts | 276° |
| 2026-05-08 04:28 | 30.82286 | -100.07241 | 34021 ft | 374 kts | 276° |
| 2026-05-08 04:29 | 30.83510 | -100.13117 | 34021 ft | 374 kts | 276° |
| 2026-05-08 04:29 | 30.84724 | -100.18965 | 34031 ft | 374 kts | 276° |
| 2026-05-08 04:30 | 30.85935 | -100.24810 | 34024 ft | 375 kts | 275° |
| 2026-05-08 04:30 | 30.87137 | -100.30622 | 34023 ft | 374 kts | 275° |
| 2026-05-08 04:31 | 30.88350 | -100.36506 | 34021 ft | 374 kts | 275° |
| 2026-05-08 04:31 | 30.89562 | -100.42399 | 34020 ft | 374 kts | 275° |
| 2026-05-08 04:32 | 30.90772 | -100.48293 | 34029 ft | 374 kts | 275° |
| 2026-05-08 04:32 | 30.91978 | -100.54185 | 34031 ft | 374 kts | 275° |
| 2026-05-08 04:33 | 30.93179 | -100.60071 | 34034 ft | 375 kts | 275° |
| 2026-05-08 04:33 | 30.94360 | -100.65868 | 34026 ft | 376 kts | 275° |
| 2026-05-08 04:34 | 30.95500 | -100.71477 | 34027 ft | 376 kts | 275° |
| 2026-05-08 04:34 | 30.96691 | -100.77351 | 34023 ft | 376 kts | 274° |
| 2026-05-08 04:35 | 30.97853 | -100.83098 | 34020 ft | 376 kts | 274° |
| 2026-05-08 04:35 | 30.98948 | -100.88526 | 34018 ft | 376 kts | 274° |
| 2026-05-08 04:36 | 31.00038 | -100.93941 | 34019 ft | 376 kts | 274° |
| 2026-05-08 04:36 | 31.01225 | -100.99856 | 34018 ft | 375 kts | 274° |
| 2026-05-08 04:37 | 31.02411 | -101.05777 | 34019 ft | 376 kts | 274° |
| 2026-05-08 04:37 | 31.03557 | -101.11512 | 34020 ft | 376 kts | 274° |
| 2026-05-08 04:38 | 31.04609 | -101.16792 | 34034 ft | 375 kts | 274° |
| 2026-05-08 04:38 | 31.05584 | -101.21695 | 34021 ft | 375 kts | 274° |
| 2026-05-08 04:39 | 31.06520 | -101.26410 | 34015 ft | 375 kts | 274° |
| 2026-05-08 04:39 | 31.07453 | -101.31122 | 34059 ft | 375 kts | 274° |
| 2026-05-08 04:40 | 31.08424 | -101.36034 | 34021 ft | 373 kts | 274° |
| 2026-05-08 04:40 | 31.09404 | -101.41005 | 34015 ft | 373 kts | 274° |
| 2026-05-08 04:41 | 31.10335 | -101.45731 | 34010 ft | 373 kts | 274° |
| 2026-05-08 04:41 | 31.11256 | -101.50419 | 34010 ft | 373 kts | 274° |
| 2026-05-08 04:42 | 31.12184 | -101.55157 | 34011 ft | 373 kts | 274° |
| 2026-05-08 04:42 | 31.13141 | -101.60046 | 34010 ft | 373 kts | 273° |
| 2026-05-08 04:43 | 31.14033 | -101.64618 | 34003 ft | 373 kts | 274° |
| 2026-05-08 04:43 | 31.14866 | -101.68895 | 34015 ft | 373 kts | 273° |
| 2026-05-08 04:44 | 31.15867 | -101.74042 | 34002 ft | 373 kts | 273° |
| 2026-05-08 04:44 | 31.16888 | -101.79309 | 34003 ft | 373 kts | 273° |
| 2026-05-08 04:45 | 31.17737 | -101.83695 | 33998 ft | 373 kts | 273° |
| 2026-05-08 04:45 | 31.18504 | -101.87664 | 34002 ft | 373 kts | 273° |
| 2026-05-08 04:46 | 31.19551 | -101.93094 | 34000 ft | 373 kts | 273° |
| 2026-05-08 04:46 | 31.20677 | -101.98948 | 33998 ft | 373 kts | 273° |
| 2026-05-08 04:47 | 31.21776 | -102.04676 | 34019 ft | 373 kts | 272° |
| 2026-05-08 04:47 | 31.22864 | -102.10364 | 34018 ft | 374 kts | 273° |
| 2026-05-08 04:48 | 31.23901 | -102.15797 | 33991 ft | 373 kts | 272° |
| 2026-05-08 04:48 | 31.24891 | -102.20997 | 33994 ft | 374 kts | 272° |
| 2026-05-08 04:49 | 31.25792 | -102.25738 | 33996 ft | 374 kts | 272° |
| 2026-05-08 04:49 | 31.26905 | -102.31610 | 33990 ft | 374 kts | 272° |
| 2026-05-08 04:50 | 31.28000 | -102.37403 | 33984 ft | 373 kts | 272° |
| 2026-05-08 04:50 | 31.28988 | -102.42647 | 34002 ft | 373 kts | 272° |
| 2026-05-08 04:51 | 31.29771 | -102.46801 | 33989 ft | 373 kts | 272° |
| 2026-05-08 04:51 | 31.30878 | -102.52695 | 33975 ft | 373 kts | 272° |
| 2026-05-08 04:52 | 31.31986 | -102.58616 | 33975 ft | 373 kts | 272° |
| 2026-05-08 04:52 | 31.33091 | -102.64532 | 33973 ft | 373 kts | 272° |
| 2026-05-08 04:53 | 31.34195 | -102.70458 | 33966 ft | 373 kts | 272° |
| 2026-05-08 04:53 | 31.35289 | -102.76349 | 33968 ft | 373 kts | 272° |
| 2026-05-08 04:54 | 31.36163 | -102.81070 | 33963 ft | 371 kts | 272° |
| 2026-05-08 04:54 | 31.37045 | -102.85836 | 33966 ft | 371 kts | 272° |
| 2026-05-08 04:55 | 31.37908 | -102.90513 | 33961 ft | 371 kts | 272° |
| 2026-05-08 04:55 | 31.38632 | -102.94449 | 33955 ft | 371 kts | 272° |
| 2026-05-08 04:56 | 31.39553 | -102.99457 | 33957 ft | 371 kts | 272° |
| 2026-05-08 04:56 | 31.40338 | -103.03741 | 33957 ft | 371 kts | 272° |
| 2026-05-08 04:57 | 31.41230 | -103.08615 | 33949 ft | 369 kts | 272° |
| 2026-05-08 04:57 | 31.42020 | -103.12943 | 33963 ft | 368 kts | 272° |
| 2026-05-08 04:58 | 31.42883 | -103.17680 | 33987 ft | 368 kts | 272° |
| 2026-05-08 04:58 | 31.43880 | -103.23164 | 33993 ft | 368 kts | 272° |
| 2026-05-08 04:59 | 31.44930 | -103.28956 | 34008 ft | 368 kts | 272° |
| 2026-05-08 04:59 | 31.45988 | -103.34809 | 34026 ft | 368 kts | 272° |
| 2026-05-08 05:00 | 31.47042 | -103.40654 | 34039 ft | 367 kts | 272° |
| 2026-05-08 05:00 | 31.48090 | -103.46486 | 34046 ft | 367 kts | 272° |
| 2026-05-08 05:01 | 31.49142 | -103.52349 | 34057 ft | 369 kts | 272° |
| 2026-05-08 05:01 | 31.50194 | -103.58237 | 34038 ft | 369 kts | 272° |
| 2026-05-08 05:02 | 31.51244 | -103.64126 | 34018 ft | 369 kts | 272° |
| 2026-05-08 05:02 | 31.52291 | -103.70009 | 34000 ft | 369 kts | 272° |
| 2026-05-08 05:03 | 31.53329 | -103.75864 | 33978 ft | 369 kts | 272° |
| 2026-05-08 05:03 | 31.54369 | -103.81750 | 33959 ft | 369 kts | 272° |
| 2026-05-08 05:04 | 31.55408 | -103.87642 | 33952 ft | 370 kts | 272° |
| 2026-05-08 05:04 | 31.56274 | -103.92567 | 33946 ft | 372 kts | 272° |
| 2026-05-08 05:05 | 31.57316 | -103.98507 | 33951 ft | 371 kts | 272° |
| 2026-05-08 05:05 | 31.58353 | -104.04436 | 33942 ft | 373 kts | 273° |
| 2026-05-08 05:06 | 31.59394 | -104.10403 | 33937 ft | 373 kts | 273° |
| 2026-05-08 05:06 | 31.60432 | -104.16376 | 33942 ft | 373 kts | 272° |
| 2026-05-08 05:07 | 31.61468 | -104.22345 | 33948 ft | 374 kts | 273° |
| 2026-05-08 05:07 | 31.62511 | -104.28381 | 33947 ft | 380 kts | 273° |
| 2026-05-08 05:08 | 31.63556 | -104.34445 | 33942 ft | 380 kts | 273° |
| 2026-05-08 05:08 | 31.64599 | -104.40511 | 33943 ft | 379 kts | 273° |
| 2026-05-08 05:09 | 31.65639 | -104.46579 | 33941 ft | 379 kts | 273° |
| 2026-05-08 05:09 | 31.66676 | -104.52653 | 33922 ft | 379 kts | 273° |
| 2026-05-08 05:10 | 31.68218 | -104.61710 | 33925 ft | 379 kts | 273° |
| 2026-05-08 05:11 | 31.69230 | -104.67678 | 33920 ft | 380 kts | 273° |
| 2026-05-08 05:11 | 31.70257 | -104.73754 | 33922 ft | 380 kts | 273° |
| 2026-05-08 05:12 | 31.71282 | -104.79832 | 33923 ft | 379 kts | 273° |
| 2026-05-08 05:12 | 31.72302 | -104.85904 | 33918 ft | 379 kts | 273° |
| 2026-05-08 05:13 | 31.73318 | -104.91970 | 33924 ft | 379 kts | 273° |
| 2026-05-08 05:13 | 31.74343 | -104.98107 | 33912 ft | 388 kts | 274° |
| 2026-05-08 05:14 | 31.75385 | -105.04362 | 33909 ft | 391 kts | 274° |
| 2026-05-08 05:14 | 31.76425 | -105.10627 | 33896 ft | 391 kts | 274° |
| 2026-05-08 05:15 | 31.77379 | -105.16397 | 33900 ft | 391 kts | 274° |
| 2026-05-08 05:15 | 31.78411 | -105.22649 | 33892 ft | 391 kts | 274° |
| 2026-05-08 05:16 | 31.79435 | -105.28880 | 33917 ft | 391 kts | 274° |
| 2026-05-08 05:16 | 31.80475 | -105.35224 | 33897 ft | 394 kts | 274° |
| 2026-05-08 05:17 | 31.81500 | -105.41497 | 33893 ft | 394 kts | 274° |
| 2026-05-08 05:17 | 31.82527 | -105.47803 | 33892 ft | 393 kts | 274° |
| 2026-05-08 05:18 | 31.83553 | -105.54116 | 33894 ft | 393 kts | 274° |
| 2026-05-08 05:18 | 31.84576 | -105.60432 | 33898 ft | 393 kts | 274° |
| 2026-05-08 05:19 | 31.85595 | -105.66742 | 33923 ft | 393 kts | 274° |
| 2026-05-08 05:19 | 31.86579 | -105.72852 | 33902 ft | 392 kts | 274° |
| 2026-05-08 05:20 | 31.87590 | -105.79150 | 33900 ft | 393 kts | 274° |
| 2026-05-08 05:20 | 31.88599 | -105.85461 | 33914 ft | 392 kts | 274° |
| 2026-05-08 05:21 | 31.89601 | -105.91738 | 33899 ft | 390 kts | 274° |
| 2026-05-08 05:21 | 31.90597 | -105.98008 | 33900 ft | 390 kts | 274° |
| 2026-05-08 05:22 | 31.91592 | -106.04289 | 33951 ft | 390 kts | 274° |
| 2026-05-08 05:22 | 31.92581 | -106.10554 | 33957 ft | 390 kts | 274° |
| 2026-05-08 05:23 | 31.93570 | -106.16834 | 33986 ft | 391 kts | 274° |
| 2026-05-08 05:23 | 31.94551 | -106.23085 | 34001 ft | 390 kts | 274° |
| 2026-05-08 05:24 | 31.95513 | -106.29365 | 34009 ft | 390 kts | 274° |
| 2026-05-08 05:24 | 31.96472 | -106.35645 | 34038 ft | 390 kts | 274° |
| 2026-05-08 05:25 | 31.97440 | -106.41957 | 34018 ft | 393 kts | 274° |
| 2026-05-08 05:25 | 31.98408 | -106.48285 | 34004 ft | 393 kts | 274° |
| 2026-05-08 05:26 | 31.99372 | -106.54607 | 34007 ft | 392 kts | 274° |
| 2026-05-08 05:26 | 32.00334 | -106.60941 | 34013 ft | 392 kts | 274° |
| 2026-05-08 05:27 | 32.01290 | -106.67254 | 34036 ft | 392 kts | 274° |
| 2026-05-08 05:27 | 32.02240 | -106.73550 | 34019 ft | 395 kts | 274° |
| 2026-05-08 05:28 | 32.03199 | -106.79924 | 34001 ft | 396 kts | 274° |
| 2026-05-08 05:28 | 32.04131 | -106.86153 | 33975 ft | 397 kts | 274° |
| 2026-05-08 05:29 | 32.05083 | -106.92527 | 33954 ft | 397 kts | 274° |
| 2026-05-08 05:29 | 32.06010 | -106.98755 | 33950 ft | 397 kts | 274° |
| 2026-05-08 05:30 | 32.06958 | -107.05155 | 33960 ft | 397 kts | 274° |
| 2026-05-08 05:30 | 32.07839 | -107.11112 | 33931 ft | 402 kts | 274° |
| 2026-05-08 05:31 | 32.08794 | -107.17602 | 33914 ft | 402 kts | 274° |
| 2026-05-08 05:31 | 32.09742 | -107.24069 | 33886 ft | 402 kts | 274° |
| 2026-05-08 05:32 | 32.10691 | -107.30564 | 33868 ft | 402 kts | 274° |
| 2026-05-08 05:32 | 32.11621 | -107.36951 | 33879 ft | 402 kts | 274° |
| 2026-05-08 05:33 | 32.12566 | -107.43463 | 33918 ft | 406 kts | 275° |
| 2026-05-08 05:33 | 32.13517 | -107.50045 | 33963 ft | 409 kts | 275° |
| 2026-05-08 05:34 | 32.14470 | -107.56666 | 34002 ft | 409 kts | 275° |
| 2026-05-08 05:34 | 32.15414 | -107.63244 | 34034 ft | 410 kts | 275° |
| 2026-05-08 05:35 | 32.16360 | -107.69864 | 34050 ft | 409 kts | 275° |
| 2026-05-08 05:35 | 32.17301 | -107.76478 | 34063 ft | 410 kts | 275° |
| 2026-05-08 05:36 | 32.18249 | -107.83167 | 33878 ft | 416 kts | 275° |
| 2026-05-08 05:36 | 32.19200 | -107.89902 | 33883 ft | 416 kts | 275° |
| 2026-05-08 05:37 | 32.20148 | -107.96640 | 33883 ft | 416 kts | 275° |
| 2026-05-08 05:37 | 32.21091 | -108.03370 | 33877 ft | 416 kts | 275° |
| 2026-05-08 05:38 | 32.22028 | -108.10089 | 33880 ft | 416 kts | 275° |
| 2026-05-08 05:38 | 32.22862 | -108.16084 | 33879 ft | 416 kts | 275° |
| 2026-05-08 05:39 | 32.23794 | -108.22820 | 33883 ft | 416 kts | 275° |
| 2026-05-08 05:39 | 32.24724 | -108.29560 | 33894 ft | 416 kts | 275° |
| 2026-05-08 05:40 | 32.25643 | -108.36250 | 33931 ft | 416 kts | 275° |
| 2026-05-08 05:40 | 32.26563 | -108.42972 | 33989 ft | 416 kts | 276° |
| 2026-05-08 05:41 | 32.27492 | -108.49791 | 34037 ft | 425 kts | 276° |
| 2026-05-08 05:41 | 32.28427 | -108.56685 | 34069 ft | 424 kts | 277° |
| 2026-05-08 05:42 | 32.29365 | -108.63624 | 34083 ft | 432 kts | 278° |
| 2026-05-08 05:42 | 32.30307 | -108.70629 | 34076 ft | 432 kts | 278° |
| 2026-05-08 05:43 | 32.31246 | -108.77640 | 33882 ft | 432 kts | 278° |
| 2026-05-08 05:43 | 32.32190 | -108.84716 | 33883 ft | 440 kts | 279° |
| 2026-05-08 05:44 | 32.33139 | -108.91864 | 33874 ft | 439 kts | 279° |
| 2026-05-08 05:44 | 32.34079 | -108.98975 | 33869 ft | 439 kts | 279° |
| 2026-05-08 05:45 | 32.35018 | -109.06108 | 33870 ft | 439 kts | 279° |
| 2026-05-08 05:45 | 32.35946 | -109.13199 | 33872 ft | 440 kts | 280° |
| 2026-05-08 05:46 | 32.36884 | -109.20387 | 33868 ft | 444 kts | 280° |
| 2026-05-08 05:46 | 32.37818 | -109.27582 | 33875 ft | 443 kts | 280° |
| 2026-05-08 05:47 | 32.38750 | -109.34792 | 33872 ft | 443 kts | 280° |
| 2026-05-08 05:47 | 32.39676 | -109.41998 | 33870 ft | 443 kts | 280° |
| 2026-05-08 05:48 | 32.40602 | -109.49214 | 33843 ft | 445 kts | 282° |
| 2026-05-08 05:48 | 32.41535 | -109.56516 | 33876 ft | 456 kts | 282° |
| 2026-05-08 05:49 | 32.42484 | -109.63985 | 33879 ft | 460 kts | 282° |
| 2026-05-08 05:49 | 32.43429 | -109.71459 | 33898 ft | 459 kts | 282° |
| 2026-05-08 05:50 | 32.44513 | -109.78884 | 33898 ft | 455 kts | 287° |
| 2026-05-08 05:50 | 32.45943 | -109.86144 | 33905 ft | 458 kts | 287° |
| 2026-05-08 05:51 | 32.47336 | -109.93502 | 33933 ft | 458 kts | 287° |
| 2026-05-08 05:51 | 32.48720 | -110.00871 | 33932 ft | 458 kts | 287° |
| 2026-05-08 05:52 | 32.50098 | -110.08232 | 33963 ft | 458 kts | 287° |
| 2026-05-08 05:52 | 32.51470 | -110.15588 | 33951 ft | 458 kts | 287° |
| 2026-05-08 05:53 | 32.52838 | -110.22944 | 33964 ft | 457 kts | 287° |
| 2026-05-08 05:53 | 32.54202 | -110.30308 | 33951 ft | 457 kts | 288° |
| 2026-05-08 05:54 | 32.55560 | -110.37666 | 33975 ft | 458 kts | 288° |
| 2026-05-08 05:54 | 32.56916 | -110.45032 | 33977 ft | 458 kts | 288° |
| 2026-05-08 05:55 | 32.58269 | -110.52412 | 33987 ft | 457 kts | 288° |
| 2026-05-08 05:55 | 32.59616 | -110.59784 | 33975 ft | 457 kts | 288° |
| 2026-05-08 05:56 | 32.60731 | -110.65907 | 33977 ft | 457 kts | 288° |
| 2026-05-08 05:56 | 32.62063 | -110.73246 | 33976 ft | 457 kts | 288° |
| 2026-05-08 05:57 | 32.63397 | -110.80622 | 33979 ft | 457 kts | 288° |
| 2026-05-08 05:57 | 32.64723 | -110.87977 | 33962 ft | 455 kts | 288° |
| 2026-05-08 05:58 | 32.66042 | -110.95320 | 33972 ft | 455 kts | 288° |
| 2026-05-08 05:58 | 32.67351 | -111.02630 | 33972 ft | 452 kts | 288° |
| 2026-05-08 05:59 | 32.68650 | -111.09914 | 33979 ft | 451 kts | 288° |
| 2026-05-08 05:59 | 32.69947 | -111.17212 | 33960 ft | 450 kts | 288° |
| 2026-05-08 06:00 | 32.71233 | -111.24471 | 33970 ft | 449 kts | 288° |
| 2026-05-08 06:00 | 32.72508 | -111.31700 | 33945 ft | 449 kts | 288° |
| 2026-05-08 06:01 | 32.73786 | -111.38966 | 33949 ft | 449 kts | 288° |
| 2026-05-08 06:01 | 32.75056 | -111.46214 | 33916 ft | 449 kts | 288° |
| 2026-05-08 06:02 | 32.76324 | -111.53479 | 33890 ft | 449 kts | 288° |
| 2026-05-08 06:02 | 32.77584 | -111.60719 | 33866 ft | 449 kts | 288° |
| 2026-05-08 06:03 | 32.78844 | -111.67987 | 33862 ft | 449 kts | 287° |
| 2026-05-08 06:03 | 32.80097 | -111.75243 | 33853 ft | 448 kts | 287° |
| 2026-05-08 06:04 | 32.81337 | -111.82448 | 33851 ft | 448 kts | 287° |
| 2026-05-08 06:04 | 32.82577 | -111.89678 | 33861 ft | 448 kts | 287° |
| 2026-05-08 06:05 | 32.83810 | -111.96891 | 33874 ft | 448 kts | 287° |
| 2026-05-08 06:05 | 32.85045 | -112.04152 | 33860 ft | 448 kts | 287° |
| 2026-05-08 06:06 | 32.86276 | -112.11408 | 33866 ft | 448 kts | 287° |
| 2026-05-08 06:06 | 32.87499 | -112.18647 | 33859 ft | 448 kts | 287° |
| 2026-05-08 06:07 | 32.88655 | -112.25510 | 33881 ft | 448 kts | 287° |
| 2026-05-08 06:07 | 32.89880 | -112.32815 | 33878 ft | 448 kts | 287° |
| 2026-05-08 06:08 | 32.90974 | -112.39356 | 33879 ft | 448 kts | 287° |
| 2026-05-08 06:08 | 32.92180 | -112.46580 | 33846 ft | 447 kts | 287° |
| 2026-05-08 06:09 | 32.93375 | -112.53771 | 33911 ft | 446 kts | 287° |
| 2026-05-08 06:09 | 32.94573 | -112.61004 | 33921 ft | 445 kts | 287° |
| 2026-05-08 06:10 | 32.95394 | -112.68331 | 33886 ft | 454 kts | 268° |
| 2026-05-08 06:10 | 32.94535 | -112.75804 | 33868 ft | 458 kts | 266° |
| 2026-05-08 06:11 | 32.93639 | -112.83311 | 33925 ft | 457 kts | 265° |
| 2026-05-08 06:11 | 32.92703 | -112.90778 | 33906 ft | 455 kts | 265° |
| 2026-05-08 06:12 | 32.91760 | -112.98238 | 33895 ft | 456 kts | 265° |
| 2026-05-08 06:12 | 32.90815 | -113.05676 | 33876 ft | 456 kts | 265° |
| 2026-05-08 06:13 | 32.89863 | -113.13122 | 33854 ft | 454 kts | 265° |
| 2026-05-08 06:13 | 32.88912 | -113.20534 | 33853 ft | 452 kts | 265° |
| 2026-05-08 06:14 | 32.87959 | -113.27926 | 33854 ft | 452 kts | 265° |
| 2026-05-08 06:14 | 32.87227 | -113.33574 | 33859 ft | 452 kts | 265° |
| 2026-05-08 06:15 | 32.86266 | -113.40962 | 33844 ft | 452 kts | 265° |
| 2026-05-08 06:15 | 32.85303 | -113.48333 | 33870 ft | 450 kts | 265° |
| 2026-05-08 06:16 | 32.84339 | -113.55676 | 33867 ft | 449 kts | 265° |
| 2026-05-08 06:16 | 32.83468 | -113.62280 | 33871 ft | 449 kts | 265° |
| 2026-05-08 06:17 | 32.82019 | -113.73206 | 33870 ft | 449 kts | 265° |
| 2026-05-08 06:17 | 32.81043 | -113.80527 | 33861 ft | 447 kts | 264° |
| 2026-05-08 06:18 | 32.80068 | -113.87803 | 33855 ft | 446 kts | 264° |
| 2026-05-08 06:18 | 32.79091 | -113.95069 | 33857 ft | 446 kts | 264° |
| 2026-05-08 06:19 | 32.78109 | -114.02344 | 33849 ft | 446 kts | 264° |
| 2026-05-08 06:19 | 32.77610 | -114.09624 | 33856 ft | 436 kts | 278° |
| 2026-05-08 06:20 | 32.77894 | -114.16821 | 33821 ft | 436 kts | 276° |
| 2026-05-08 06:20 | 32.78172 | -114.23961 | 33841 ft | 436 kts | 276° |
| 2026-05-08 06:21 | 32.78453 | -114.31145 | 33839 ft | 436 kts | 276° |
| 2026-05-08 06:21 | 32.78819 | -114.38336 | 33885 ft | 433 kts | 285° |
| 2026-05-08 06:22 | 32.80579 | -114.45080 | 33866 ft | 428 kts | 290° |
| 2026-05-08 06:22 | 32.82378 | -114.51787 | 33910 ft | 427 kts | 291° |
| 2026-05-08 06:23 | 32.84218 | -114.58510 | 33896 ft | 427 kts | 291° |
| 2026-05-08 06:23 | 32.86056 | -114.65220 | 33890 ft | 427 kts | 291° |
| 2026-05-08 06:24 | 32.87731 | -114.71995 | 33863 ft | 430 kts | 279° |
| 2026-05-08 06:24 | 32.87735 | -114.79152 | 33855 ft | 435 kts | 272° |
| 2026-05-08 06:25 | 32.87627 | -114.86255 | 33883 ft | 426 kts | 272° |
| 2026-05-08 06:25 | 32.87555 | -114.89729 | 33775 ft | 413 kts | 272° |
| 2026-05-08 06:25 | 32.87479 | -114.93153 | 33410 ft | 407 kts | 272° |
| 2026-05-08 06:26 | 32.87404 | -114.96467 | 32915 ft | 405 kts | 272° |
| 2026-05-08 06:26 | 32.87327 | -114.99809 | 32426 ft | 403 kts | 272° |
| 2026-05-08 06:26 | 32.87250 | -115.03121 | 31961 ft | 400 kts | 272° |
| 2026-05-08 06:26 | 32.87171 | -115.06454 | 31525 ft | 397 kts | 272° |
| 2026-05-08 06:27 | 32.87094 | -115.09682 | 31100 ft | 394 kts | 272° |
| 2026-05-08 06:27 | 32.87016 | -115.12913 | 30671 ft | 392 kts | 272° |
| 2026-05-08 06:27 | 32.86937 | -115.16143 | 30242 ft | 390 kts | 272° |
| 2026-05-08 06:27 | 32.86858 | -115.19356 | 29786 ft | 388 kts | 272° |
| 2026-05-08 06:28 | 32.86778 | -115.22558 | 29310 ft | 386 kts | 272° |
| 2026-05-08 06:28 | 32.86699 | -115.25731 | 28867 ft | 383 kts | 271° |
| 2026-05-08 06:28 | 32.86619 | -115.28890 | 28457 ft | 379 kts | 271° |
| 2026-05-08 06:28 | 32.86539 | -115.32002 | 28042 ft | 376 kts | 271° |
| 2026-05-08 06:29 | 32.86354 | -115.35102 | 27597 ft | 377 kts | 263° |
| 2026-05-08 06:29 | 32.85874 | -115.38157 | 27174 ft | 374 kts | 263° |
| 2026-05-08 06:29 | 32.85455 | -115.41182 | 26795 ft | 371 kts | 264° |
| 2026-05-08 06:29 | 32.85051 | -115.44198 | 26414 ft | 369 kts | 264° |
| 2026-05-08 06:30 | 32.84655 | -115.47210 | 26012 ft | 367 kts | 264° |
| 2026-05-08 06:30 | 32.84194 | -115.50194 | 25587 ft | 367 kts | 262° |
| 2026-05-08 06:30 | 32.83700 | -115.53166 | 25179 ft | 366 kts | 262° |
| 2026-05-08 06:30 | 32.83214 | -115.56124 | 24808 ft | 364 kts | 262° |
| 2026-05-08 06:31 | 32.82733 | -115.59076 | 24419 ft | 363 kts | 262° |
| 2026-05-08 06:31 | 32.82253 | -115.62022 | 24010 ft | 363 kts | 262° |
| 2026-05-08 06:31 | 32.81773 | -115.64963 | 23616 ft | 362 kts | 262° |
| 2026-05-08 06:31 | 32.81293 | -115.67901 | 23157 ft | 362 kts | 262° |
| 2026-05-08 06:32 | 32.80816 | -115.70817 | 22727 ft | 361 kts | 262° |
| 2026-05-08 06:32 | 32.80338 | -115.73734 | 22319 ft | 359 kts | 261° |
| 2026-05-08 06:32 | 32.79862 | -115.76639 | 21921 ft | 357 kts | 261° |
| 2026-05-08 06:32 | 32.79387 | -115.79529 | 21526 ft | 355 kts | 261° |
| 2026-05-08 06:33 | 32.78915 | -115.82398 | 21136 ft | 353 kts | 261° |
| 2026-05-08 06:33 | 32.78491 | -115.85264 | 20724 ft | 351 kts | 267° |
| 2026-05-08 06:33 | 32.78314 | -115.88152 | 20313 ft | 350 kts | 268° |
| 2026-05-08 06:33 | 32.78121 | -115.91030 | 19965 ft | 348 kts | 267° |
| 2026-05-08 06:34 | 32.77915 | -115.93889 | 19593 ft | 347 kts | 267° |
| 2026-05-08 06:34 | 32.77702 | -115.96728 | 19210 ft | 346 kts | 267° |
| 2026-05-08 06:34 | 32.77484 | -115.99567 | 18808 ft | 346 kts | 266° |
| 2026-05-08 06:34 | 32.77263 | -116.02424 | 18398 ft | 348 kts | 266° |
| 2026-05-08 06:35 | 32.77041 | -116.05282 | 17950 ft | 348 kts | 266° |
| 2026-05-08 06:35 | 32.76817 | -116.08145 | 17522 ft | 348 kts | 266° |
| 2026-05-08 06:35 | 32.76595 | -116.10982 | 17138 ft | 342 kts | 266° |
| 2026-05-08 06:35 | 32.76376 | -116.13776 | 16797 ft | 336 kts | 266° |
| 2026-05-08 06:36 | 32.76160 | -116.16515 | 16431 ft | 331 kts | 266° |
| 2026-05-08 06:36 | 32.75947 | -116.19212 | 16073 ft | 325 kts | 266° |
| 2026-05-08 06:36 | 32.75738 | -116.21848 | 15715 ft | 318 kts | 266° |
| 2026-05-08 06:36 | 32.75533 | -116.24425 | 15355 ft | 319 kts | 266° |
| 2026-05-08 06:37 | 32.75322 | -116.27084 | 14990 ft | 320 kts | 266° |
| 2026-05-08 06:37 | 32.75119 | -116.29691 | 14471 ft | 328 kts | 266° |
| 2026-05-08 06:37 | 32.74904 | -116.32472 | 13950 ft | 340 kts | 266° |
| 2026-05-08 06:37 | 32.74686 | -116.35283 | 13449 ft | 346 kts | 266° |
| 2026-05-08 06:38 | 32.74467 | -116.38103 | 12935 ft | 349 kts | 266° |
| 2026-05-08 06:38 | 32.74242 | -116.40978 | 12446 ft | 351 kts | 266° |
| 2026-05-08 06:38 | 32.74017 | -116.43872 | 11920 ft | 353 kts | 266° |
| 2026-05-08 06:38 | 32.73787 | -116.46786 | 11368 ft | 346 kts | 266° |
| 2026-05-08 06:39 | 32.73568 | -116.49553 | 10878 ft | 337 kts | 265° |
| 2026-05-08 06:39 | 32.73310 | -116.52272 | 10434 ft | 329 kts | 265° |
| 2026-05-08 06:39 | 32.73053 | -116.54926 | 10032 ft | 319 kts | 266° |
| 2026-05-08 06:39 | 32.72805 | -116.57507 | 9632 ft | 310 kts | 265° |
| 2026-05-08 06:40 | 32.72568 | -116.59992 | 9254 ft | 299 kts | 265° |
| 2026-05-08 06:40 | 32.72336 | -116.62409 | 8898 ft | 289 kts | 265° |
| 2026-05-08 06:40 | 32.72112 | -116.64746 | 8554 ft | 280 kts | 266° |
| 2026-05-08 06:40 | 32.71919 | -116.67019 | 8207 ft | 276 kts | 267° |
| 2026-05-08 06:41 | 32.71742 | -116.69282 | 7851 ft | 273 kts | 267° |
| 2026-05-08 06:41 | 32.71565 | -116.71513 | 7521 ft | 269 kts | 267° |
| 2026-05-08 06:41 | 32.71389 | -116.73712 | 7209 ft | 267 kts | 267° |
| 2026-05-08 06:41 | 32.71216 | -116.75904 | 6895 ft | 266 kts | 268° |
| 2026-05-08 06:42 | 32.71046 | -116.78071 | 6557 ft | 263 kts | 268° |
| 2026-05-08 06:42 | 32.70876 | -116.80217 | 6185 ft | 259 kts | 268° |
| 2026-05-08 06:42 | 32.70613 | -116.82305 | 5876 ft | 255 kts | 256° |
| 2026-05-08 06:42 | 32.70005 | -116.84260 | 5576 ft | 249 kts | 253° |
| 2026-05-08 06:43 | 32.69408 | -116.86140 | 5371 ft | 238 kts | 253° |
| 2026-05-08 06:43 | 32.68856 | -116.87900 | 5136 ft | 229 kts | 254° |
| 2026-05-08 06:43 | 32.68446 | -116.89660 | 5029 ft | 209 kts | 271° |
| 2026-05-08 06:43 | 32.68570 | -116.91314 | 4848 ft | 194 kts | 281° |
| 2026-05-08 06:44 | 32.68737 | -116.92861 | 4540 ft | 184 kts | 279° |
| 2026-05-08 06:44 | 32.68836 | -116.93864 | 4357 ft | 187 kts | 279° |
| 2026-05-08 06:44 | 32.69034 | -116.95963 | 4056 ft | 195 kts | 278° |
| 2026-05-08 06:44 | 32.69177 | -116.97547 | 3782 ft | 196 kts | 277° |
| 2026-05-08 06:45 | 32.69270 | -116.98637 | 3577 ft | 197 kts | 277° |
| 2026-05-08 06:45 | 32.69451 | -117.00781 | 3186 ft | 199 kts | 276° |
| 2026-05-08 06:45 | 32.69586 | -117.02412 | 2878 ft | 198 kts | 276° |
| 2026-05-08 06:45 | 32.69677 | -117.03513 | 2732 ft | 198 kts | 276° |
| 2026-05-08 06:46 | 32.70093 | -117.05621 | 2447 ft | 199 kts | 286° |
| 2026-05-08 06:46 | 32.70477 | -117.07166 | 2164 ft | 191 kts | 285° |
| 2026-05-08 06:46 | 32.70731 | -117.08159 | 1942 ft | 181 kts | 287° |
| 2026-05-08 06:46 | 32.71106 | -117.09505 | 1673 ft | 166 kts | 287° |
| 2026-05-08 06:47 | 32.71431 | -117.10732 | 1445 ft | 148 kts | 284° |
| 2026-05-08 06:47 | 32.71698 | -117.11927 | 1223 ft | 151 kts | 284° |
| 2026-05-08 06:47 | 32.71973 | -117.13115 | 973 ft | 146 kts | 284° |
| 2026-05-08 06:47 | 32.72242 | -117.14283 | 797 ft | 148 kts | 283° |
| 2026-05-08 06:48 | 32.72519 | -117.15471 | 621 ft | 150 kts | 283° |
| 2026-05-08 06:48 | 32.72799 | -117.16641 | 362 ft | 147 kts | 284° |
| 2026-05-08 06:48 | 32.73075 | -117.17798 | 101 ft | 147 kts | 284° |
| 2026-05-08 06:48 | 32.73341 | -117.18903 | 26 ft | 124 kts | 286° |
| 2026-05-08 06:49 | 32.73499 | -117.19559 | 27 ft | 66 kts | 285° |
| 2026-05-08 06:49 | 32.73514 | -117.19852 | 26 ft | 18 kts | 243° |
| 2026-05-08 06:49 | 32.73495 | -117.19963 | 25 ft | 11 kts | 280° |
| 2026-05-08 06:49 | 32.73517 | -117.20060 | 26 ft | 14 kts | 287° |
| 2026-05-08 06:50 | 32.73540 | -117.20157 | 26 ft | 11 kts | 285° |
| 2026-05-08 06:50 | 32.73533 | -117.20225 | 27 ft | 8 kts | 227° |
| 2026-05-08 06:50 | 32.73511 | -117.20238 | 25 ft | 0 kts | 197° |
| 2026-05-08 06:50 | 32.73503 | -117.20241 | 25 ft | 3 kts | 197° |
| 2026-05-08 06:51 | 32.73474 | -117.20252 | 25 ft | 6 kts | 197° |
| 2026-05-08 06:51 | 32.73430 | -117.20277 | 25 ft | 8 kts | 230° |
| 2026-05-08 06:51 | 32.73419 | -117.20328 | 25 ft | 2 kts | 262° |
| 2026-05-08 06:51 | 32.73419 | -117.20334 | 25 ft | 1 kts | 262° |
| 2026-05-08 06:52 | 32.73418 | -117.20338 | 29 ft | 0 kts | 262° |